createdAt,value
2023-02-03T00:01:45.987Z,3.92
2023-02-03T00:04:14.864Z,3.63
2023-02-03T00:06:41.349Z,4.10
2023-02-03T00:09:10.250Z,4.10
2023-02-03T00:11:37.931Z,3.55
2023-02-03T00:14:08.180Z,3.92
2023-02-03T00:16:36.020Z,3.33
2023-02-03T00:19:03.906Z,3.38
2023-02-03T00:21:31.694Z,3.65
2023-02-03T00:23:59.529Z,3.58
2023-02-03T00:26:28.687Z,3.40
2023-02-03T00:28:56.200Z,2.95
2023-02-03T00:31:24.993Z,3.30
2023-02-03T00:33:56.035Z,3.55
2023-02-03T00:36:24.643Z,2.93
2023-02-03T00:38:53.039Z,2.92
2023-02-03T00:41:21.257Z,3.83
2023-02-03T00:43:52.093Z,3.00
2023-02-03T00:46:19.663Z,3.88
2023-02-03T00:48:46.124Z,3.47
2023-02-03T00:51:12.590Z,2.47
2023-02-03T00:53:38.997Z,2.70
2023-02-03T00:56:12.465Z,2.65
2023-02-03T00:58:40.898Z,1.70
2023-02-03T01:01:07.835Z,2.63
2023-02-03T01:03:35.423Z,2.13
2023-02-03T01:06:20.859Z,1.70
2023-02-03T01:08:48.839Z,2.22
2023-02-03T01:11:17.798Z,1.90
2023-02-03T01:13:45.892Z,2.60
2023-02-03T01:16:15.375Z,2.10
2023-02-03T01:18:43.727Z,2.53
2023-02-03T01:21:12.828Z,1.98
2023-02-03T01:23:40.568Z,2.28
2023-02-03T01:26:10.201Z,1.73
2023-02-03T01:28:37.224Z,2.00
2023-02-03T01:31:17.200Z,1.95
2023-02-03T01:33:48.153Z,1.77
2023-02-03T01:36:16.771Z,2.03
2023-02-03T01:38:45.370Z,3.92
2023-02-03T01:41:19.688Z,2.20
2023-02-03T01:43:48.293Z,1.98
2023-02-03T01:46:34.440Z,2.28
2023-02-03T01:49:18.018Z,2.03
2023-02-03T01:51:45.914Z,1.98
2023-02-03T01:54:18.696Z,2.38
2023-02-03T01:56:48.168Z,1.80
2023-02-03T01:59:16.031Z,2.00
2023-02-03T02:01:44.115Z,2.17
2023-02-03T02:04:10.644Z,2.60
2023-02-03T02:06:38.261Z,2.65
2023-02-03T02:09:06.203Z,2.17
2023-02-03T02:11:34.813Z,2.47
2023-02-03T02:14:02.885Z,2.30
2023-02-03T02:16:48.101Z,2.05
2023-02-03T02:19:37.101Z,1.70
2023-02-03T02:22:23.313Z,2.17
2023-02-03T02:25:08.723Z,1.90
2023-02-03T02:27:54.062Z,1.90
2023-02-03T02:30:46.827Z,2.45
2023-02-03T02:33:16.755Z,2.15
2023-02-03T02:36:08.489Z,2.20
2023-02-03T02:38:34.897Z,2.47
2023-02-03T02:41:15.547Z,2.38
2023-02-03T02:43:47.331Z,1.65
2023-02-03T02:49:16.395Z,2.40
2023-02-03T02:51:45.268Z,1.63
2023-02-03T02:54:15.708Z,2.40
2023-02-03T02:56:44.751Z,2.78
2023-02-03T02:59:12.871Z,2.50
2023-02-03T03:01:41.336Z,2.53
2023-02-03T03:04:11.543Z,2.47
2023-02-03T03:07:03.103Z,2.65
2023-02-03T03:09:40.495Z,3.63
2023-02-03T03:12:18.685Z,3.05
2023-02-03T03:14:48.578Z,2.85
2023-02-03T03:17:19.172Z,3.90
2023-02-03T03:19:50.644Z,3.30
2023-02-03T03:22:20.621Z,3.30
2023-02-03T03:25:01.032Z,3.00
2023-02-03T03:27:32.117Z,3.85
2023-02-03T03:30:01.952Z,2.25
2023-02-03T03:32:32.933Z,2.70
2023-02-03T03:35:01.898Z,2.92
2023-02-03T03:37:36.963Z,2.92
2023-02-03T03:40:12.809Z,3.20
2023-02-03T03:43:01.523Z,3.33
2023-02-03T03:45:46.585Z,3.25
2023-02-03T03:48:18.958Z,3.17
2023-02-03T03:50:52.023Z,3.17
2023-02-03T03:53:20.501Z,2.78
2023-02-03T03:55:49.971Z,3.17
2023-02-03T03:58:24.866Z,3.28
2023-02-03T04:00:54.431Z,3.15
2023-02-03T04:03:24.368Z,3.03
2023-02-03T04:05:52.116Z,3.35
2023-02-03T04:08:19.777Z,3.40
2023-02-03T04:10:49.097Z,3.53
2023-02-03T04:13:19.903Z,3.67
2023-02-03T04:15:47.513Z,3.50
2023-02-03T04:18:14.858Z,3.80
2023-02-03T04:20:42.863Z,3.25
2023-02-03T04:23:10.705Z,3.20
2023-02-03T04:25:38.372Z,3.63
2023-02-03T04:28:06.824Z,3.25
2023-02-03T04:30:34.840Z,3.17
2023-02-03T04:33:02.502Z,2.83
2023-02-03T04:35:28.997Z,3.00
2023-02-03T04:37:56.906Z,3.42
2023-02-03T04:40:27.339Z,3.00
2023-02-03T04:42:54.950Z,3.35
2023-02-03T04:45:22.796Z,4.68
2023-02-03T04:47:54.609Z,2.92
2023-02-03T04:50:22.215Z,2.85
2023-02-03T04:52:49.924Z,2.83
2023-02-03T04:55:16.376Z,2.97
2023-02-03T04:57:43.533Z,3.22
2023-02-03T05:00:11.493Z,3.25
2023-02-03T05:02:39.349Z,3.47
2023-02-03T05:05:09.982Z,2.90
2023-02-03T05:07:41.881Z,3.17
2023-02-03T05:10:10.448Z,3.33
2023-02-03T05:12:38.037Z,2.88
2023-02-03T05:15:06.262Z,2.80
2023-02-03T05:17:38.812Z,3.10
2023-02-03T05:20:07.263Z,2.63
2023-02-03T05:22:35.696Z,2.60
2023-02-03T05:25:04.685Z,2.50
2023-02-03T05:27:32.476Z,2.78
2023-02-03T05:30:00.311Z,2.67
2023-02-03T05:32:30.508Z,3.00
2023-02-03T05:34:58.363Z,3.55
2023-02-03T05:37:26.237Z,3.30
2023-02-03T05:39:54.024Z,3.47
2023-02-03T05:42:21.503Z,4.15
2023-02-03T05:44:49.165Z,3.78
2023-02-03T05:47:17.194Z,3.25
2023-02-03T05:49:43.600Z,2.75
2023-02-03T05:52:11.301Z,3.45
2023-02-03T05:54:38.195Z,2.75
2023-02-03T05:57:05.761Z,3.40
2023-02-03T05:59:33.559Z,4.38
2023-02-03T06:01:59.995Z,3.97
2023-02-03T06:04:27.838Z,3.90
2023-02-03T06:06:54.463Z,3.88
2023-02-03T06:09:23.229Z,3.58
2023-02-03T06:11:53.447Z,3.53
2023-02-03T06:14:21.244Z,3.85
2023-02-03T06:16:48.835Z,4.65
2023-02-03T06:19:16.580Z,4.50
2023-02-03T06:21:44.656Z,4.82
2023-02-03T06:24:12.576Z,5.35
2023-02-03T06:26:40.693Z,5.05
2023-02-03T06:29:08.313Z,5.53
2023-02-03T06:31:36.047Z,5.35
2023-02-03T06:34:03.595Z,4.63
2023-02-03T06:36:31.361Z,4.75
2023-02-03T06:38:59.310Z,4.57
2023-02-03T06:41:30.535Z,4.43
2023-02-03T06:43:58.451Z,4.60
2023-02-03T06:46:30.193Z,4.35
2023-02-03T06:51:25.904Z,4.57
2023-02-03T06:53:56.214Z,4.32
2023-02-03T06:56:22.668Z,4.20
2023-02-03T06:58:49.366Z,4.70
2023-02-03T07:01:17.190Z,4.40
2023-02-03T07:03:44.860Z,5.03
2023-02-03T07:06:12.771Z,3.75
2023-02-03T07:08:40.507Z,4.50
2023-02-03T07:11:08.058Z,4.70
2023-02-03T07:13:36.292Z,4.78
2023-02-03T07:16:04.287Z,4.40
2023-02-03T07:18:48.302Z,4.90
2023-02-03T07:21:16.609Z,5.15
2023-02-03T07:23:45.469Z,4.50
2023-02-03T07:26:13.477Z,5.00
2023-02-03T07:28:41.034Z,5.15
2023-02-03T07:31:10.499Z,4.47
2023-02-03T07:33:37.522Z,4.68
2023-02-03T07:36:05.394Z,4.20
2023-02-03T07:38:33.432Z,4.30
2023-02-03T07:41:01.220Z,3.92
2023-02-03T07:43:28.940Z,3.53
2023-02-03T07:45:56.618Z,3.63
2023-02-03T07:48:24.635Z,3.25
2023-02-03T07:50:52.914Z,3.08
2023-02-03T07:53:19.428Z,3.72
2023-02-03T07:55:46.012Z,3.45
2023-02-03T07:58:12.627Z,4.20
2023-02-03T08:00:39.145Z,3.78
2023-02-03T08:03:05.664Z,3.35
2023-02-03T08:05:32.290Z,3.90
2023-02-03T08:07:59.511Z,4.45
2023-02-03T08:10:26.458Z,3.17
2023-02-03T08:12:53.787Z,3.63
2023-02-03T08:15:20.492Z,3.88
2023-02-03T08:17:47.086Z,4.15
2023-02-03T08:20:13.529Z,3.33
2023-02-03T08:22:39.951Z,3.13
2023-02-03T08:25:07.431Z,3.95
2023-02-03T08:27:33.921Z,4.10
2023-02-03T08:30:00.411Z,3.47
2023-02-03T08:32:27.044Z,3.78
2023-02-03T08:34:54.117Z,4.22
2023-02-03T08:37:22.698Z,3.58
2023-02-03T08:39:49.338Z,3.80
2023-02-03T08:42:25.007Z,3.53
2023-02-03T08:44:51.501Z,3.22
2023-02-03T08:47:17.959Z,4.00
2023-02-03T08:49:44.512Z,5.20
2023-02-03T08:52:12.200Z,4.25
2023-02-03T08:54:39.162Z,4.40
2023-02-03T08:57:06.438Z,4.60
2023-02-03T08:59:36.253Z,4.28
2023-02-03T09:02:07.160Z,4.00
2023-02-03T09:04:34.364Z,5.13
2023-02-03T09:07:02.458Z,3.58
2023-02-03T09:09:29.139Z,4.22
2023-02-03T09:12:00.747Z,3.70
2023-02-03T09:14:27.307Z,3.13
2023-02-03T09:16:53.952Z,3.10
2023-02-03T09:19:20.454Z,3.05
2023-02-03T09:21:49.128Z,3.60
2023-02-03T09:24:16.361Z,3.30
2023-02-03T09:26:42.865Z,3.20
2023-02-03T09:29:09.322Z,3.88
2023-02-03T09:31:35.969Z,3.45
2023-02-03T09:34:02.655Z,4.20
2023-02-03T09:36:29.133Z,2.83
2023-02-03T09:38:57.121Z,3.13
2023-02-03T09:41:29.648Z,3.42
2023-02-03T09:44:02.626Z,3.15
2023-02-03T09:46:32.872Z,2.78
2023-02-03T09:48:59.396Z,3.60
2023-02-03T09:51:36.398Z,2.92
2023-02-03T09:54:21.396Z,2.75
2023-02-03T09:56:50.929Z,2.55
2023-02-03T09:59:17.407Z,2.17
2023-02-03T10:01:49.111Z,2.45
2023-02-03T10:04:41.665Z,2.63
2023-02-03T10:10:00.054Z,1.95
2023-02-03T10:17:53.097Z,2.90
2023-02-03T12:45:28.175Z,3.92
2023-02-03T12:47:57.140Z,3.25
2023-02-03T12:50:27.026Z,3.05
2023-02-03T12:52:57.591Z,3.17
2023-02-03T12:55:42.883Z,2.83
2023-02-03T12:58:12.423Z,2.55
2023-02-03T13:00:42.008Z,2.70
2023-02-03T13:03:11.588Z,3.13
2023-02-03T13:05:56.554Z,5.10
2023-02-03T13:08:36.415Z,3.10
2023-02-03T13:11:09.601Z,3.63
2023-02-03T13:13:39.956Z,2.75
2023-02-03T13:16:08.091Z,3.17
2023-02-03T13:18:36.779Z,3.33
2023-02-03T13:21:03.587Z,2.30
2023-02-03T13:23:30.118Z,2.72
2023-02-03T13:26:16.837Z,3.50
2023-02-03T13:29:01.612Z,2.92
2023-02-03T13:31:28.141Z,2.72
2023-02-03T13:34:17.764Z,2.83
2023-02-03T13:36:47.521Z,2.80
2023-02-03T13:39:29.255Z,3.03
2023-02-03T13:41:57.884Z,5.18
2023-02-03T13:44:28.518Z,4.65
2023-02-03T13:46:56.916Z,10.35
2023-02-03T13:49:31.326Z,6.28
2023-02-03T13:51:58.132Z,4.47
2023-02-03T13:54:28.831Z,3.95
2023-02-03T13:56:57.480Z,5.10
2023-02-03T13:59:33.100Z,6.05
2023-02-03T14:02:17.951Z,6.82
2023-02-03T14:04:47.324Z,6.28
2023-02-03T14:07:29.662Z,5.97
2023-02-03T14:10:08.208Z,5.03
2023-02-03T14:13:02.462Z,6.97
2023-02-03T14:15:31.394Z,4.30
2023-02-03T14:18:00.425Z,4.78
2023-02-03T14:20:26.912Z,4.05
2023-02-03T14:22:59.247Z,6.85
2023-02-03T14:25:27.346Z,11.98
2023-02-03T14:28:02.607Z,6.68
2023-02-03T14:30:29.149Z,6.07
2023-02-03T14:32:57.947Z,8.10
2023-02-03T14:35:30.066Z,15.65
2023-02-03T14:38:07.609Z,10.57
2023-02-03T14:40:52.691Z,8.55
2023-02-03T14:43:25.489Z,14.75
2023-02-03T14:46:07.845Z,11.05
2023-02-03T14:48:37.944Z,6.30
2023-02-03T14:51:13.390Z,14.98
2023-02-03T14:53:39.811Z,8.93
2023-02-03T14:56:06.253Z,8.07
2023-02-03T14:58:45.835Z,6.32
2023-02-03T15:01:23.816Z,6.57
2023-02-03T15:04:09.179Z,8.07
2023-02-03T15:06:43.230Z,6.22
2023-02-03T15:09:32.866Z,5.40
2023-02-03T15:11:59.537Z,10.80
2023-02-03T15:14:27.578Z,9.25
2023-02-03T15:16:55.620Z,9.50
2023-02-03T15:19:26.776Z,12.88
2023-02-03T15:21:53.459Z,9.73
2023-02-03T15:24:22.920Z,7.28
2023-02-03T15:26:56.164Z,6.47
2023-02-03T15:29:32.962Z,7.22
2023-02-03T15:32:12.625Z,5.72
2023-02-03T15:34:44.848Z,6.30
2023-02-03T15:37:37.423Z,5.95
2023-02-03T15:40:18.258Z,9.70
2023-02-03T15:43:03.107Z,13.73
2023-02-03T15:45:35.865Z,10.60
2023-02-03T15:48:12.283Z,8.13
2023-02-03T15:50:42.900Z,15.30
2023-02-03T15:53:41.085Z,9.27
2023-02-03T15:56:17.953Z,8.27
2023-02-03T15:58:45.538Z,7.90
2023-02-03T16:01:17.742Z,8.13
2023-02-03T16:03:49.123Z,8.77
2023-02-03T16:06:18.415Z,10.00
2023-02-03T16:08:48.919Z,9.80
2023-02-03T16:11:23.607Z,11.20
2023-02-03T16:13:50.417Z,14.35
2023-02-03T16:16:16.970Z,10.80
2023-02-03T16:18:50.468Z,10.75
2023-02-03T16:21:25.446Z,11.07
2023-02-03T16:23:51.849Z,10.10
2023-02-03T16:26:19.609Z,20.08
2023-02-03T16:29:23.074Z,15.95
2023-02-03T16:32:08.658Z,12.65
2023-02-03T16:34:53.916Z,13.70
2023-02-03T16:37:43.424Z,15.88
2023-02-03T16:40:29.651Z,15.88
2023-02-03T16:43:14.497Z,19.58
2023-02-03T16:45:59.286Z,18.05
2023-02-03T16:48:44.401Z,21.45
2023-02-03T16:51:12.322Z,26.35
2023-02-03T16:53:38.918Z,27.30
2023-02-03T16:56:05.681Z,30.23
2023-02-03T16:58:32.238Z,42.67
2023-02-03T17:01:00.095Z,26.92
2023-02-03T17:03:28.343Z,60.47
2023-02-03T17:05:55.218Z,406.33
2023-02-03T17:08:25.713Z,238.05
2023-02-03T17:10:52.253Z,394.33
2023-02-03T17:13:20.187Z,362.17
2023-02-03T17:15:52.604Z,280.88
2023-02-03T17:18:19.527Z,222.23
2023-02-03T17:20:46.489Z,177.45
2023-02-03T17:23:13.616Z,35.92
2023-02-03T17:25:40.412Z,69.45
2023-02-03T17:28:07.847Z,137.65
2023-02-03T17:30:35.407Z,76.18
2023-02-03T17:33:02.553Z,43.65
2023-02-03T17:35:29.486Z,34.10
2023-02-03T17:37:56.079Z,26.40
2023-02-03T17:54:06.129Z,25.15
2023-02-03T17:56:33.503Z,25.85
2023-02-03T17:59:05.826Z,26.08
2023-02-03T18:01:32.437Z,22.58
2023-02-03T18:04:02.076Z,29.42
2023-02-03T18:06:29.019Z,33.05
2023-02-03T18:09:01.973Z,28.95
2023-02-03T18:11:29.520Z,24.60
2023-02-03T18:13:56.166Z,25.90
2023-02-03T18:16:26.090Z,22.55
2023-02-03T18:18:53.190Z,27.33
2023-02-03T18:21:20.724Z,16.17
2023-02-03T18:23:48.954Z,16.17
2023-02-03T18:26:15.449Z,9.00
2023-02-03T18:28:42.002Z,10.15
2023-02-03T18:31:14.039Z,7.25
2023-02-03T18:33:41.460Z,8.02
2023-02-03T18:36:08.226Z,8.20
2023-02-03T18:38:36.107Z,6.03
2023-02-03T18:41:06.635Z,5.82
2023-02-03T18:43:33.391Z,6.07
2023-02-03T18:46:00.310Z,5.50
2023-02-03T18:48:26.889Z,6.80
2023-02-03T18:50:53.342Z,5.35
2023-02-03T18:53:19.898Z,5.22
2023-02-03T18:55:46.541Z,5.63
2023-02-03T18:58:13.301Z,5.88
2023-02-03T19:00:40.889Z,5.60
2023-02-03T19:03:07.859Z,6.10
2023-02-03T19:05:34.354Z,6.25
2023-02-03T19:08:00.815Z,5.95
2023-02-03T19:10:27.668Z,6.90
2023-02-03T19:12:54.332Z,6.10
2023-02-03T19:15:20.828Z,5.65
2023-02-03T19:17:47.402Z,6.72
2023-02-03T19:20:13.828Z,6.63
2023-02-03T19:22:40.316Z,5.95
2023-02-03T19:25:06.803Z,4.93
2023-02-03T19:27:33.323Z,5.57
2023-02-03T19:29:59.824Z,6.80
2023-02-03T19:32:26.447Z,6.78
2023-02-03T19:34:52.959Z,5.70
2023-02-03T19:37:19.483Z,6.13
2023-02-03T19:39:50.343Z,7.03
2023-02-03T19:42:17.077Z,6.78
2023-02-03T19:44:43.934Z,6.68
2023-02-03T19:47:10.429Z,6.75
2023-02-03T19:49:36.901Z,7.03
2023-02-03T19:52:03.553Z,8.15
2023-02-03T19:54:30.032Z,7.15
2023-02-03T19:56:56.501Z,8.55
2023-02-03T19:59:22.957Z,8.52
2023-02-03T20:01:49.817Z,7.20
2023-02-03T20:04:16.348Z,9.05
2023-02-03T20:06:42.854Z,8.48
2023-02-03T20:09:09.320Z,7.20
2023-02-03T20:11:35.834Z,7.97
2023-02-03T20:14:02.351Z,8.45
2023-02-03T20:16:28.934Z,7.47
2023-02-03T20:18:56.289Z,7.50
2023-02-03T20:21:22.729Z,6.90
2023-02-03T20:23:49.202Z,8.23
2023-02-03T20:26:15.731Z,8.02
2023-02-03T20:28:42.223Z,8.32
2023-02-03T20:31:08.885Z,8.25
2023-02-03T20:33:35.524Z,6.82
2023-02-03T20:36:02.063Z,7.47
2023-02-03T20:38:28.727Z,6.93
2023-02-03T20:40:55.317Z,7.00
2023-02-03T20:43:23.433Z,6.93
2023-02-03T20:45:50.063Z,7.47
2023-02-03T20:48:17.284Z,6.25
2023-02-03T20:50:48.042Z,6.80
2023-02-03T20:53:16.348Z,4.23
2023-02-03T20:55:43.033Z,6.43
2023-02-03T20:58:16.737Z,6.78
2023-02-03T21:00:43.436Z,7.82
2023-02-03T21:03:29.672Z,7.45
2023-02-03T21:05:56.386Z,8.38
2023-02-03T21:08:23.022Z,7.88
2023-02-03T21:10:49.485Z,9.80
2023-02-03T21:13:20.705Z,9.55
2023-02-03T21:15:49.005Z,9.27
2023-02-03T21:18:27.811Z,9.13
2023-02-03T21:20:54.229Z,9.75
2023-02-03T21:23:22.598Z,9.90
2023-02-03T21:25:49.092Z,8.55
2023-02-03T21:28:26.686Z,7.20
2023-02-03T21:30:54.274Z,7.35
2023-02-03T21:33:29.889Z,7.45
2023-02-03T21:35:56.436Z,7.90
2023-02-03T21:38:28.011Z,7.03
2023-02-03T21:40:54.446Z,8.02
2023-02-03T21:43:22.694Z,7.93
2023-02-03T21:45:49.294Z,8.80
2023-02-03T21:48:25.220Z,8.57
2023-02-03T21:50:52.243Z,9.27
2023-02-03T21:53:27.857Z,9.68
2023-02-03T21:55:54.378Z,10.15
2023-02-03T21:58:32.689Z,8.45
2023-02-03T22:01:03.150Z,8.80
2023-02-03T22:03:32.015Z,9.13
2023-02-03T22:06:04.609Z,9.07
2023-02-03T22:08:32.928Z,9.80
2023-02-03T22:10:59.389Z,10.15
2023-02-03T22:13:25.880Z,10.68
2023-02-03T22:15:52.668Z,8.85
2023-02-03T22:18:19.087Z,9.98
2023-02-03T22:20:45.545Z,8.98
2023-02-03T22:23:12.267Z,8.63
2023-02-03T22:25:39.532Z,8.18
2023-02-03T22:28:06.548Z,7.63
2023-02-03T22:30:33.802Z,8.32
2023-02-03T22:33:02.156Z,7.00
2023-02-03T22:35:28.755Z,6.28
2023-02-03T22:37:55.231Z,6.72
2023-02-03T22:40:22.166Z,6.82
2023-02-03T22:42:49.011Z,6.47
2023-02-03T22:45:15.498Z,6.38
2023-02-03T22:47:41.978Z,6.38
2023-02-03T22:50:10.496Z,6.95
2023-02-03T22:52:37.012Z,6.70
2023-02-03T22:55:04.253Z,6.65
2023-02-03T22:57:30.729Z,6.18
2023-02-03T22:59:57.254Z,7.05
2023-02-03T23:02:23.705Z,6.15
2023-02-03T23:04:50.596Z,5.85
2023-02-03T23:07:17.133Z,6.25
2023-02-03T23:09:43.633Z,5.40
2023-02-03T23:12:10.116Z,5.55
2023-02-03T23:14:36.609Z,5.07
2023-02-03T23:17:03.077Z,5.50
2023-02-03T23:19:29.517Z,6.00
2023-02-03T23:21:55.949Z,5.40
2023-02-03T23:24:22.422Z,5.22
2023-02-03T23:26:48.954Z,4.80
2023-02-03T23:29:46.374Z,5.50
2023-02-03T23:32:12.932Z,5.88
2023-02-03T23:34:57.798Z,5.20
2023-02-03T23:37:24.267Z,6.07
2023-02-03T23:39:50.769Z,6.15
2023-02-03T23:42:17.296Z,8.20
2023-02-03T23:44:43.729Z,6.55
2023-02-03T23:47:10.350Z,5.82
2023-02-03T23:49:36.767Z,5.78
2023-02-03T23:52:03.210Z,5.60
2023-02-03T23:54:29.674Z,5.70
2023-02-03T23:56:56.148Z,5.50
2023-02-03T23:59:22.666Z,5.10
